Time;durP1;ratioP1;P1;durP2;ratioP2;P2;SDS_P1;SDS_P2;PMS_P1;PMS_P2;Temp;Humidity;BMP_temperature;BMP_pressure;BME280_temperature;BME280_humidity;BME280_pressure;Samples;Min_cycle;Max_cycle;Signal;HPM_P1;HPM_P2
2022/03/11 00:00:11;;;;;;;4.68;1.48;;;;;;;5.58;79.69;101407.03;2105413;28;20130;-79
2022/03/11 00:01:38;;;;;;;5.78;2.78;;;;;;;5.36;79.32;101412.13;2112647;28;20112;-78
2022/03/11 00:03:03;;;;;;;6.53;2.85;;;;;;;5.15;79.42;101403.25;2107814;28;20055;-78
2022/03/11 00:04:26;;;;;;;8.18;2.80;;;;;;;5.01;80.13;101413.06;2107907;28;20071;-78
2022/03/11 00:05:48;;;;;;;11.98;3.50;;;;;;;5.03;80.38;101421.91;2102400;28;20461;-79
2022/03/11 00:07:09;;;;;;;6.65;2.03;;;;;;;5.08;80.78;101424.72;2113442;28;20154;-79
2022/03/11 00:08:32;;;;;;;8.20;3.22;;;;;;;5.11;80.76;101417.94;2113489;28;20067;-79
2022/03/11 00:09:53;;;;;;;8.02;3.08;;;;;;;5.16;80.61;101418.16;2113446;28;20413;-79
2022/03/11 00:11:16;;;;;;;9.30;3.95;;;;;;;5.20;80.71;101412.22;2113348;28;20531;-78
2022/03/11 00:12:37;;;;;;;8.93;3.15;;;;;;;5.27;80.55;101406.44;2107479;28;20093;-79
2022/03/11 00:14:01;;;;;;;6.65;4.05;;;;;;;5.32;80.43;101399.69;2105127;28;20044;-79
2022/03/11 00:15:23;;;;;;;9.82;4.40;;;;;;;5.34;80.08;101391.94;2102756;28;20036;-79
2022/03/11 00:16:45;;;;;;;5.55;2.22;;;;;;;5.37;80.08;101389.47;2110736;28;20044;-79
2022/03/11 00:18:07;;;;;;;7.15;3.08;;;;;;;5.39;79.97;101386.06;2105089;28;20131;-78
2022/03/11 00:19:29;;;;;;;7.03;3.30;;;;;;;5.44;79.87;101375.84;2111026;28;20436;-79
2022/03/11 00:20:52;;;;;;;6.32;2.30;;;;;;;5.49;79.66;101374.31;2105040;28;20044;-78
2022/03/11 00:22:14;;;;;;;9.88;3.33;;;;;;;5.54;79.72;101394.66;2111013;28;20126;-79
2022/03/11 00:23:37;;;;;;;7.75;3.15;;;;;;;5.59;79.74;101406.22;2104983;28;20085;-79
2022/03/11 00:24:59;;;;;;;6.07;2.67;;;;;;;5.63;79.82;101399.41;2110906;28;20046;-79
2022/03/11 00:26:22;;;;;;;11.50;1.52;;;;;;;5.60;79.50;101405.41;2113468;28;20069;-79
2022/03/11 00:27:43;;;;;;;8.05;2.03;;;;;;;5.53;79.31;101402.44;2107611;28;20047;-79
2022/03/11 00:29:08;;;;;;;11.98;3.10;;;;;;;5.48;79.58;101398.72;2110552;28;20056;-80
2022/03/11 00:30:31;;;;;;;4.18;1.75;;;;;;;5.44;79.62;101394.16;2113472;28;20047;-79
2022/03/11 00:31:52;;;;;;;6.65;2.60;;;;;;;5.39;79.69;101419.22;2099142;28;20044;-79
2022/03/11 00:33:14;;;;;;;7.32;2.33;;;;;;;5.36;79.80;101413.84;2116350;27;20055;-79
2022/03/11 00:34:37;;;;;;;8.52;2.22;;;;;;;5.34;79.67;101411.16;2107589;28;20032;-79
2022/03/11 00:36:04;;;;;;;5.97;2.28;;;;;;;5.37;79.98;101408.69;2102891;28;20048;-79
2022/03/11 00:37:27;;;;;;;11.77;2.90;;;;;;;5.36;79.87;101404.28;2102690;28;20163;-79
2022/03/11 00:38:49;;;;;;;7.95;3.80;;;;;;;5.37;79.87;101400.84;2110983;28;20090;-80
2022/03/11 00:40:13;;;;;;;9.35;2.97;;;;;;;5.40;79.73;101394.84;2113328;28;20088;-80
2022/03/11 00:41:36;;;;;;;12.13;3.10;;;;;;;5.44;79.66;101407.25;2105167;28;20154;-80
2022/03/11 00:42:58;;;;;;;6.93;2.60;;;;;;;5.47;79.53;101389.97;2102562;28;20086;-79
2022/03/11 00:44:23;;;;;;;3.10;1.10;;;;;;;5.50;79.25;101397.06;2104843;28;20151;-79
2022/03/11 00:45:45;;;;;;;5.82;2.00;;;;;;;5.52;79.13;101392.78;2105099;28;20036;-80
2022/03/11 00:47:07;;;;;;;6.97;2.10;;;;;;;5.53;78.71;101381.47;2104963;28;20482;-80
2022/03/11 00:48:30;;;;;;;9.15;1.75;;;;;;;5.53;78.92;101377.13;2110557;28;20047;-80
2022/03/11 00:49:51;;;;;;;5.47;2.17;;;;;;;5.53;78.78;101379.75;2113185;28;20098;-79
2022/03/11 00:51:13;;;;;;;5.63;1.67;;;;;;;5.55;78.58;101378.13;2104998;28;20052;-80
2022/03/11 00:52:35;;;;;;;5.03;2.13;;;;;;;5.58;78.36;101375.63;2104830;28;20483;-81
2022/03/11 00:53:57;;;;;;;3.78;2.03;;;;;;;5.62;78.09;101376.66;2102046;28;20048;-80
2022/03/11 00:55:20;;;;;;;6.10;2.30;;;;;;;5.65;77.81;101371.56;2101936;28;20043;-81
2022/03/11 00:56:43;;;;;;;3.45;1.88;;;;;;;5.63;77.69;101381.09;2111306;28;20044;-81
2022/03/11 00:58:07;;;;;;;8.15;2.55;;;;;;;5.58;77.85;101375.63;2104105;28;20086;-80
2022/03/11 00:59:31;;;;;;;8.25;2.40;;;;;;;5.58;77.82;101359.91;2110367;28;20047;-80
2022/03/11 01:00:53;;;;;;;4.65;1.58;;;;;;;5.58;77.92;101375.63;2105047;28;20508;-80
2022/03/11 01:02:17;;;;;;;5.80;1.80;;;;;;;5.61;77.80;101380.13;2110534;28;20142;-80
2022/03/11 01:03:39;;;;;;;6.38;2.25;;;;;;;5.62;77.62;101384.53;2104835;28;20043;-80
2022/03/11 01:05:04;;;;;;;6.80;2.78;;;;;;;5.64;77.34;101382.00;2102665;28;20531;-80
2022/03/11 01:06:27;;;;;;;7.28;1.88;;;;;;;5.65;76.93;101378.50;2102691;28;20055;-80
2022/03/11 01:07:50;;;;;;;2.92;1.48;;;;;;;5.66;76.79;101401.25;2104831;28;20074;-80
2022/03/11 01:09:12;;;;;;;5.03;1.77;;;;;;;5.65;76.73;101410.84;2102317;28;20519;-80
2022/03/11 01:10:35;;;;;;;6.97;2.83;;;;;;;5.65;76.23;101402.09;2110384;28;20040;-81
2022/03/11 01:11:57;;;;;;;3.55;1.17;;;;;;;5.64;76.13;101405.56;2104840;28;20146;-81
2022/03/11 01:13:20;;;;;;;10.50;3.00;;;;;;;5.60;75.92;101397.53;2104860;28;20102;-80
2022/03/11 01:14:45;;;;;;;4.55;1.73;;;;;;;5.61;75.90;101395.81;2102587;28;20070;-81
2022/03/11 01:16:08;;;;;;;9.90;2.00;;;;;;;5.60;75.79;101407.13;2110719;28;20079;-80
2022/03/11 01:17:30;;;;;;;4.43;1.70;;;;;;;5.59;75.79;101406.22;2104675;28;20044;-81
2022/03/11 01:18:52;;;;;;;5.32;1.73;;;;;;;5.59;75.81;101400.09;2110437;28;20583;-81
2022/03/11 01:20:16;;;;;;;5.00;2.00;;;;;;;5.58;75.98;101407.03;2104569;28;20040;-81
2022/03/11 01:21:38;;;;;;;7.80;2.33;;;;;;;5.58;75.85;101409.66;2113304;28;20122;-81
2022/03/11 01:23:01;;;;;;;9.38;2.80;;;;;;;5.56;75.55;101403.47;2113119;28;20506;-81
2022/03/11 01:24:22;;;;;;;7.97;2.78;;;;;;;5.53;75.58;101398.09;2104561;28;20059;-80
2022/03/11 01:25:44;;;;;;;4.60;2.17;;;;;;;5.54;75.64;101394.66;2101738;28;20048;-80
2022/03/11 01:27:06;;;;;;;6.10;1.77;;;;;;;5.55;75.48;101398.16;2104506;28;20078;-81
2022/03/11 01:28:28;;;;;;;6.75;2.47;;;;;;;5.57;75.12;101391.28;2110278;28;20051;-80
2022/03/11 01:29:51;;;;;;;9.45;2.15;;;;;;;5.63;75.15;101390.66;2113150;28;20063;-81
2022/03/11 01:31:14;;;;;;;7.60;2.85;;;;;;;5.66;75.10;101382.94;2104602;28;20089;-81
2022/03/11 01:32:37;;;;;;;6.63;2.40;;;;;;;5.71;74.95;101378.81;2104647;28;20388;-81
2022/03/11 01:33:59;;;;;;;9.85;2.03;;;;;;;5.74;74.82;101371.09;2118827;27;20047;-80
2022/03/11 01:35:21;;;;;;;13.07;3.33;;;;;;;5.78;74.45;101363.41;2107149;28;20044;-80
2022/03/11 01:36:43;;;;;;;7.47;2.55;;;;;;;5.82;74.24;101372.31;2101785;28;20134;-80
2022/03/11 01:38:05;;;;;;;5.35;1.73;;;;;;;5.87;74.18;101383.91;2101802;28;20072;-80
2022/03/11 01:39:27;;;;;;;5.32;2.10;;;;;;;5.90;73.83;101371.88;2101998;28;20090;-80
2022/03/11 01:40:50;;;;;;;9.88;1.80;;;;;;;5.93;73.78;101389.44;2101769;28;20043;-80
2022/03/11 01:42:17;;;;;;;8.23;2.65;;;;;;;5.95;73.62;101383.44;2111382;28;20531;-80
2022/03/11 01:43:51;;;;;;;8.20;1.52;;;;;;;6.02;73.31;101400.34;2107111;28;20433;-79
2022/03/11 01:45:15;;;;;;;2.97;1.55;;;;;;;6.01;73.42;101393.31;2113527;28;20040;-80
2022/03/11 01:46:39;;;;;;;8.27;2.38;;;;;;;6.01;73.17;101395.91;2112886;28;20051;-79
2022/03/11 01:48:01;;;;;;;4.70;1.58;;;;;;;6.00;73.14;101394.13;2107018;28;20040;-80
2022/03/11 01:49:24;;;;;;;6.28;1.73;;;;;;;5.98;72.73;101401.91;2101717;28;20505;-80
2022/03/11 01:50:47;;;;;;;6.85;2.10;;;;;;;5.97;72.65;101394.88;2101626;28;20075;-80
2022/03/11 01:52:10;;;;;;;4.72;1.83;;;;;;;5.98;72.60;101414.09;2110379;28;20129;-80
2022/03/11 01:53:33;;;;;;;7.45;1.52;;;;;;;5.98;72.51;101401.91;2112843;28;20039;-80
2022/03/11 01:54:56;;;;;;;7.28;1.65;;;;;;;6.00;72.25;101396.75;2104520;28;20080;-80
2022/03/11 01:56:18;;;;;;;3.63;2.15;;;;;;;6.01;72.04;101398.53;2110233;28;20171;-80
2022/03/11 01:57:41;;;;;;;1.13;0.68;;;;;;;6.02;72.04;101408.19;2096136;28;20037;-79
2022/03/11 01:59:04;;;;;;;3.63;1.60;;;;;;;6.02;72.08;101417.78;2101886;28;20531;-79
2022/03/11 02:00:29;;;;;;;3.90;1.25;;;;;;;5.92;72.50;101408.59;2104639;28;20040;-80
2022/03/11 02:01:50;;;;;;;7.50;1.80;;;;;;;5.77;73.21;101406.19;2112735;28;20099;-79
2022/03/11 02:03:13;;;;;;;4.25;1.58;;;;;;;5.65;73.73;101423.03;2104221;28;20048;-79
2022/03/11 02:04:34;;;;;;;2.67;1.00;;;;;;;5.55;74.52;101427.88;2109885;28;20092;-79
2022/03/11 02:05:57;;;;;;;1.42;0.73;;;;;;;5.50;75.00;101426.78;2104170;28;20040;-78
2022/03/11 02:07:21;;;;;;;4.65;1.17;;;;;;;5.49;75.21;101430.22;2104046;28;20506;-78
2022/03/11 02:08:44;;;;;;;6.97;1.85;;;;;;;5.52;75.22;101442.53;2110490;28;20039;-78
2022/03/11 02:10:07;;;;;;;9.75;2.13;;;;;;;5.52;75.37;101451.28;2103998;28;20052;-79
2022/03/11 02:11:30;;;;;;;3.75;1.08;;;;;;;5.50;75.32;101466.03;2112442;28;20126;-79
2022/03/11 02:12:51;;;;;;;3.33;1.15;;;;;;;5.44;75.14;101455.28;2104134;28;20072;-78
2022/03/11 02:14:14;;;;;;;3.00;0.85;;;;;;;5.34;75.07;101458.28;2109655;28;20048;-79
2022/03/11 02:15:38;;;;;;;4.30;1.52;;;;;;;5.33;75.30;101453.84;2112492;28;20040;-78
2022/03/11 02:16:59;;;;;;;3.42;1.10;;;;;;;5.32;75.26;101459.00;2112505;28;20178;-79
2022/03/11 02:18:22;;;;;;;3.22;1.13;;;;;;;5.30;75.00;101445.88;2104036;28;20422;-79
2022/03/11 02:19:44;;;;;;;4.55;1.67;;;;;;;5.32;75.07;101443.31;2106569;28;20036;-78
2022/03/11 02:21:06;;;;;;;6.10;2.85;;;;;;;5.34;74.85;101444.28;2106694;28;20048;-80
2022/03/11 02:22:28;;;;;;;;;;;;;;;5.36;74.68;101440.03;2110350;28;20054;-79
2022/03/11 02:23:52;;;;;;;6.95;2.60;;;;;;;5.33;74.78;101447.72;2106972;28;19920;-79
2022/03/11 02:25:15;;;;;;;6.15;2.95;;;;;;;5.33;74.78;101438.16;2118692;27;20075;-79
2022/03/11 02:26:39;;;;;;;10.75;4.50;;;;;;;5.39;74.47;101435.81;2106594;28;20418;-79
2022/03/11 02:28:01;;;;;;;8.23;3.13;;;;;;;5.44;74.40;101431.72;2101803;28;20078;-79
2022/03/11 02:29:24;;;;;;;9.77;5.90;;;;;;;5.48;74.12;101428.41;2109969;28;20048;-79
2022/03/11 02:30:45;;;;;;;7.72;4.20;;;;;;;5.50;73.89;101424.16;2103978;28;20523;-79
2022/03/11 02:32:09;;;;;;;6.20;3.55;;;;;;;5.52;73.64;101422.47;2109650;28;20182;-79
2022/03/11 02:33:32;;;;;;;5.70;2.00;;;;;;;5.53;73.77;101423.38;2104156;28;20048;-80
2022/03/11 02:34:54;;;;;;;6.10;2.13;;;;;;;5.52;73.78;101434.66;2112517;28;20052;-80
2022/03/11 02:36:18;;;;;;;5.05;1.70;;;;;;;5.54;73.97;101426.06;2103846;28;20515;-80
2022/03/11 02:37:40;;;;;;;2.63;1.30;;;;;;;5.57;73.88;101441.03;2110348;28;20036;-79
2022/03/11 02:39:06;;;;;;;6.00;1.50;;;;;;;5.59;73.83;101444.59;2103956;28;20573;-79
2022/03/11 02:40:28;;;;;;;5.40;2.00;;;;;;;5.57;73.10;101447.19;2110227;28;20055;-79
2022/03/11 02:41:51;;;;;;;4.63;2.13;;;;;;;5.57;73.09;101451.50;2095657;28;20531;-79
2022/03/11 02:43:15;;;;;;;6.68;1.75;;;;;;;5.57;72.85;101443.66;2109904;28;20044;-79
2022/03/11 02:44:38;;;;;;;2.92;1.33;;;;;;;5.58;72.77;101453.28;2106682;28;20079;-80
2022/03/11 02:46:00;;;;;;;3.53;1.40;;;;;;;5.59;72.90;101452.47;2109950;28;20122;-79
2022/03/11 02:47:23;;;;;;;5.60;2.13;;;;;;;5.58;72.60;101445.41;2103858;28;20044;-79
2022/03/11 02:48:45;;;;;;;4.78;1.70;;;;;;;5.60;72.46;101444.69;2101111;28;20040;-80
2022/03/11 02:50:09;;;;;;;5.60;1.52;;;;;;;5.60;72.41;101433.31;2109675;28;20111;-79
2022/03/11 02:51:32;;;;;;;5.15;1.20;;;;;;;5.60;72.25;101449.03;2104004;28;20503;-79
2022/03/11 02:52:54;;;;;;;3.35;1.35;;;;;;;5.59;72.05;101442.88;2112195;28;20043;-79
2022/03/11 02:54:18;;;;;;;5.22;1.95;;;;;;;5.63;72.11;101440.41;2106594;28;20048;-79
2022/03/11 02:55:41;;;;;;;8.05;1.58;;;;;;;5.63;71.75;101437.81;2118172;27;20055;-79
2022/03/11 02:57:04;;;;;;;7.50;1.63;;;;;;;5.64;71.67;101432.66;2098184;28;20045;-78
2022/03/11 02:58:25;;;;;;;7.10;1.65;;;;;;;5.66;71.43;101441.44;2098987;28;20048;-78
2022/03/11 02:59:48;;;;;;;2.63;0.93;;;;;;;5.64;71.08;101435.25;2109354;28;20502;-79
2022/03/11 03:01:11;;;;;;;3.08;1.35;;;;;;;5.66;71.22;101436.22;2103785;28;20418;-79
2022/03/11 03:02:33;;;;;;;6.32;2.05;;;;;;;5.69;71.41;101441.59;2112090;28;20039;-80
2022/03/11 03:03:56;;;;;;;3.28;1.40;;;;;;;5.76;71.44;101450.63;2112118;28;20047;-79
2022/03/11 03:05:18;;;;;;;13.73;1.67;;;;;;;5.78;71.70;101446.34;2112238;28;20055;-78
2022/03/11 03:06:41;;;;;;;3.58;1.40;;;;;;;5.84;71.77;101462.38;2103677;28;20072;-79
2022/03/11 03:08:03;;;;;;;2.90;0.90;;;;;;;5.84;71.87;101467.59;2109527;28;20084;-78
2022/03/11 03:09:27;;;;;;;;;;;;;;;5.87;71.96;101466.03;2095881;28;20458;-79
2022/03/11 03:10:48;;;;;;;8.77;1.33;;;;;;;5.82;72.24;101464.91;2098769;28;20334;-80
2022/03/11 03:12:12;;;;;;;3.30;1.52;;;;;;;5.78;72.16;101476.06;2100735;28;20049;-79
2022/03/11 03:13:34;;;;;;;3.85;1.55;;;;;;;5.74;71.93;101481.09;2103979;28;20097;-79
2022/03/11 03:14:57;;;;;;;5.35;1.70;;;;;;;5.68;71.78;101486.94;2109599;28;20131;-79
2022/03/11 03:16:24;;;;;;;3.97;1.23;;;;;;;5.67;71.88;101490.38;2113148;28;20079;-79
2022/03/11 03:17:46;;;;;;;2.03;0.75;;;;;;;5.64;71.95;101497.22;2103616;28;20071;-79
2022/03/11 03:19:08;;;;;;;3.85;1.85;;;;;;;5.59;71.87;101496.97;2100903;28;20044;-79
2022/03/11 03:20:31;;;;;;;3.80;1.30;;;;;;;5.54;71.94;101494.16;2100715;28;20126;-79
2022/03/11 03:21:54;;;;;;;2.53;0.90;;;;;;;5.50;72.11;101481.75;2118092;28;20482;-80
2022/03/11 03:23:16;;;;;;;5.70;1.60;;;;;;;5.49;71.87;101477.34;2106356;28;20056;-79
2022/03/11 03:24:39;;;;;;;8.82;2.58;;;;;;;5.52;71.85;101481.78;2100998;28;20089;-79
2022/03/11 03:26:02;;;;;;;7.40;3.95;;;;;;;5.52;71.71;101480.06;2101137;28;20139;-79
2022/03/11 03:27:25;;;;;;;5.43;2.60;;;;;;;5.56;71.55;101476.81;2101040;28;20044;-80
2022/03/11 03:28:46;;;;;;;3.22;1.40;;;;;;;5.59;71.43;101476.94;2109679;28;20048;-80
2022/03/11 03:30:18;;;;;;;3.83;1.33;;;;;;;5.62;71.24;101481.41;2104772;28;20139;-80
2022/03/11 03:31:41;;;;;;;10.05;1.33;;;;;;;5.65;71.16;101481.53;2110954;28;20482;-80
2022/03/11 03:33:04;;;;;;;5.00;1.27;;;;;;;5.67;70.89;101482.53;2111919;28;20119;-80
2022/03/11 03:34:29;;;;;;;12.45;2.50;;;;;;;5.71;70.65;101483.59;2103835;28;20048;-80
2022/03/11 03:35:52;;;;;;;3.03;1.33;;;;;;;5.75;70.33;101481.16;2110161;28;20551;-80
2022/03/11 03:37:14;;;;;;;5.28;0.90;;;;;;;5.79;70.06;101475.22;2112132;28;20051;-80
2022/03/11 03:38:37;;;;;;;2.55;0.80;;;;;;;5.82;70.07;101469.25;2115000;28;20063;-81
2022/03/11 03:39:59;;;;;;;5.70;1.73;;;;;;;5.85;70.04;101474.63;2106295;28;20051;-80
2022/03/11 03:41:22;;;;;;;5.40;2.15;;;;;;;5.86;69.96;101479.94;2109197;28;20473;-80
2022/03/11 03:42:47;;;;;;;3.88;1.10;;;;;;;5.90;69.83;101478.41;2103615;28;20044;-80
2022/03/11 03:44:10;;;;;;;1.98;0.90;;;;;;;5.90;69.80;101474.06;2110324;28;20531;-79
2022/03/11 03:45:33;;;;;;;5.60;1.25;;;;;;;5.90;69.87;101483.63;2103852;28;20101;-79
2022/03/11 03:46:55;;;;;;;5.85;1.23;;;;;;;5.93;69.74;101483.75;2103500;28;20432;-79
2022/03/11 03:48:17;;;;;;;4.20;1.48;;;;;;;5.94;69.48;101481.22;2101262;28;20043;-79
2022/03/11 03:49:39;;;;;;;4.00;1.08;;;;;;;5.94;69.49;101468.13;2109187;28;20036;-79
2022/03/11 03:51:02;;;;;;;1.30;0.70;;;;;;;5.94;69.04;101482.94;2103930;28;20052;-80
2022/03/11 03:52:23;;;;;;;1.48;0.80;;;;;;;5.97;68.84;101488.34;2112078;28;20117;-80
2022/03/11 03:53:46;;;;;;;3.40;1.45;;;;;;;5.98;68.89;101487.47;2106179;28;20165;-80
2022/03/11 03:55:11;;;;;;;2.05;1.90;;;;;;;5.98;68.57;101477.91;2103566;28;20047;-79
2022/03/11 03:56:35;;;;;;;4.38;0.93;;;;;;;5.99;68.40;101481.41;2118225;28;20096;-80
2022/03/11 03:57:58;;;;;;;1.33;0.75;;;;;;;6.03;67.91;101490.34;2106209;28;20072;-80
2022/03/11 03:59:20;;;;;;;3.53;1.17;;;;;;;6.04;68.26;101485.13;2103619;28;20348;-79
2022/03/11 04:00:43;;;;;;;2.65;1.10;;;;;;;6.06;68.09;101487.84;2101137;28;20032;-80
2022/03/11 04:02:05;;;;;;;3.05;0.75;;;;;;;6.06;68.34;101485.22;2109556;28;20105;-80
2022/03/11 04:03:27;;;;;;;3.75;1.23;;;;;;;6.05;67.77;101483.41;2103605;28;20043;-79
2022/03/11 04:04:58;;;;;;;3.30;0.95;;;;;;;6.02;67.60;101484.19;2104732;28;20040;-80
2022/03/11 04:06:21;;;;;;;2.25;1.02;;;;;;;6.02;66.98;101491.16;2106195;28;20477;-80
2022/03/11 04:07:44;;;;;;;2.22;1.40;;;;;;;6.06;67.07;101493.06;2109379;28;20140;-80
2022/03/11 04:09:08;;;;;;;4.88;1.08;;;;;;;6.10;67.00;101495.03;2114973;28;20393;-80
2022/03/11 04:10:32;;;;;;;2.90;0.98;;;;;;;6.12;67.06;101493.34;2112565;28;20074;-80
2022/03/11 04:11:54;;;;;;;3.83;0.93;;;;;;;6.13;67.01;101488.19;2120752;28;20154;-80
2022/03/11 04:13:17;;;;;;;6.45;1.10;;;;;;;6.15;67.01;101494.41;2106454;28;20067;-80
2022/03/11 04:14:38;;;;;;;3.67;1.42;;;;;;;6.16;66.85;101482.19;2092655;28;20389;-79
2022/03/11 04:16:01;;;;;;;2.25;0.90;;;;;;;6.15;66.09;101494.41;2109281;28;20059;-80
2022/03/11 04:17:24;;;;;;;3.20;1.17;;;;;;;6.14;65.66;101487.34;2114477;28;20164;-79
2022/03/11 04:18:45;;;;;;;2.85;0.85;;;;;;;6.14;66.07;101486.47;2114598;28;20073;-80
2022/03/11 04:20:12;;;;;;;3.25;0.95;;;;;;;6.12;65.81;101481.16;2112296;28;20168;-79
2022/03/11 04:21:34;;;;;;;5.57;0.82;;;;;;;6.10;65.95;101482.81;2112246;28;20067;-80
2022/03/11 04:22:57;;;;;;;4.05;0.82;;;;;;;6.09;65.71;101488.88;2111924;28;20430;-80
2022/03/11 04:24:23;;;;;;;3.30;1.08;;;;;;;6.10;65.22;101492.41;2103585;28;20075;-80
2022/03/11 04:25:46;;;;;;;3.65;1.00;;;;;;;6.11;65.23;101484.59;2103920;28;20048;-80
2022/03/11 04:27:08;;;;;;;5.78;1.40;;;;;;;6.11;65.71;101491.53;2109704;28;20096;-81
2022/03/11 04:28:31;;;;;;;2.70;1.40;;;;;;;6.12;65.49;101494.25;2103501;28;20051;-81
2022/03/11 04:29:53;;;;;;;1.30;0.75;;;;;;;6.15;65.78;101507.50;2109470;28;20142;-81
2022/03/11 04:31:19;;;;;;;0.90;0.60;;;;;;;6.17;65.87;101505.81;2104084;28;20600;-81
2022/03/11 04:32:42;;;;;;;6.43;2.63;;;;;;;6.19;65.63;101501.56;2101573;28;20127;-81
2022/03/11 04:34:04;;;;;;;4.90;1.30;;;;;;;6.18;65.76;101512.88;2113492;28;20143;-81
2022/03/11 04:35:28;;;;;;;4.05;1.30;;;;;;;6.05;66.40;101505.28;2107878;28;20502;-79
2022/03/11 04:36:51;;;;;;;2.40;0.82;;;;;;;5.82;67.23;101511.16;2104917;28;20054;-79
2022/03/11 04:38:14;;;;;;;5.72;1.27;;;;;;;5.69;67.85;101514.03;2104915;28;20214;-79
2022/03/11 04:39:35;;;;;;;4.65;1.40;;;;;;;5.63;68.47;101514.66;2102332;28;20534;-79
2022/03/11 04:41:02;;;;;;;3.25;1.48;;;;;;;5.63;68.84;101522.50;2102270;28;20063;-79
2022/03/11 04:42:25;;;;;;;7.03;2.38;;;;;;;5.65;69.08;101519.94;2111542;28;20461;-80
2022/03/11 04:43:48;;;;;;;7.85;2.40;;;;;;;5.66;69.35;101522.63;2105088;28;20047;-79
2022/03/11 04:45:11;;;;;;;2.88;1.35;;;;;;;5.66;69.61;101525.25;2102474;28;20086;-79
2022/03/11 04:46:33;;;;;;;3.42;1.77;;;;;;;5.69;69.65;101527.13;2102153;28;20107;-79
2022/03/11 04:47:56;;;;;;;5.85;1.73;;;;;;;5.68;69.83;101535.81;2110456;28;20040;-78
2022/03/11 04:49:19;;;;;;;7.25;3.33;;;;;;;5.64;70.03;101531.25;2098932;28;20045;-78
2022/03/11 04:50:41;;;;;;;7.28;2.58;;;;;;;5.56;70.19;101528.28;2102089;28;20044;-78
2022/03/11 04:52:06;;;;;;;6.15;1.50;;;;;;;5.51;70.68;101524.53;2110605;28;20129;-78
2022/03/11 04:53:28;;;;;;;4.75;1.48;;;;;;;5.47;71.00;101520.84;2113616;28;20044;-78
2022/03/11 04:54:51;;;;;;;12.52;1.50;;;;;;;5.43;71.01;101507.56;2113462;28;20130;-78
2022/03/11 04:56:15;;;;;;;4.30;1.38;;;;;;;5.43;70.88;101521.56;2121709;27;20486;-79
2022/03/11 04:57:37;;;;;;;3.40;1.25;;;;;;;5.43;70.96;101526.78;2115727;28;20054;-78
2022/03/11 04:59:00;;;;;;;5.05;1.67;;;;;;;5.46;71.01;101532.16;2113009;28;20437;-78
2022/03/11 05:00:24;;;;;;;7.35;2.78;;;;;;;5.48;71.00;101529.63;2113338;28;20519;-78
2022/03/11 05:01:46;;;;;;;8.93;3.30;;;;;;;5.49;71.07;101550.66;2104678;28;20109;-79
2022/03/11 05:03:09;;;;;;;3.83;1.60;;;;;;;5.52;70.75;101535.06;2102017;28;20048;-78
2022/03/11 05:04:31;;;;;;;5.18;2.80;;;;;;;5.57;70.70;101541.44;2096269;28;20048;-78
2022/03/11 05:05:54;;;;;;;4.90;1.92;;;;;;;5.59;70.68;101537.16;2102282;28;20112;-78
2022/03/11 05:07:17;;;;;;;5.85;1.90;;;;;;;5.63;70.54;101538.22;2101949;28;20088;-78
2022/03/11 05:08:39;;;;;;;5.57;1.70;;;;;;;5.64;70.12;101546.97;2110185;28;20503;-78
2022/03/11 05:10:01;;;;;;;3.17;1.20;;;;;;;5.66;69.96;101537.44;2113044;28;20036;-78
2022/03/11 05:11:26;;;;;;;8.68;1.42;;;;;;;5.71;69.81;101543.81;2104867;28;20138;-78
2022/03/11 05:12:47;;;;;;;3.05;1.10;;;;;;;5.75;69.82;101536.19;2102435;28;20586;-78
2022/03/11 05:14:11;;;;;;;3.83;2.28;;;;;;;5.78;69.55;101540.63;2093671;28;20049;-78
2022/03/11 05:15:35;;;;;;;4.38;1.10;;;;;;;5.80;69.43;101521.56;2108156;28;20036;-79
2022/03/11 05:16:56;;;;;;;4.93;2.00;;;;;;;5.82;69.35;101539.97;2113379;28;20109;-79
2022/03/11 05:18:18;;;;;;;10.98;2.30;;;;;;;5.86;69.32;101539.28;2104434;28;20051;-78
2022/03/11 05:19:41;;;;;;;3.85;1.92;;;;;;;5.91;69.45;101537.81;2102074;28;20131;-78
2022/03/11 05:21:03;;;;;;;4.80;1.88;;;;;;;5.97;69.61;101538.13;2104424;28;20143;-78
2022/03/11 05:22:25;;;;;;;6.13;2.00;;;;;;;6.04;69.77;101540.16;2110460;28;20051;-79
2022/03/11 05:23:47;;;;;;;5.63;1.70;;;;;;;6.11;69.74;101541.34;2112862;28;20048;-78
2022/03/11 05:25:09;;;;;;;10.30;2.70;;;;;;;6.18;69.71;101548.66;2104620;28;20084;-80
2022/03/11 05:26:33;;;;;;;3.67;1.15;;;;;;;6.22;69.61;101540.13;2110417;28;20872;-79
2022/03/11 05:27:56;;;;;;;2.88;1.17;;;;;;;6.22;69.64;101548.91;2104732;28;20051;-79
2022/03/11 05:29:18;;;;;;;3.60;1.10;;;;;;;6.24;69.73;101552.47;2104720;28;20156;-79
2022/03/11 05:30:43;;;;;;;10.10;1.38;;;;;;;6.28;69.52;101550.91;2113072;28;20043;-79
2022/03/11 05:32:05;;;;;;;5.15;2.00;;;;;;;6.30;69.52;101554.50;2113037;28;20126;-80
2022/03/11 05:33:27;;;;;;;8.35;1.40;;;;;;;6.36;69.58;101554.78;2112995;28;20066;-79
2022/03/11 05:34:49;;;;;;;4.65;1.70;;;;;;;6.33;68.96;101560.75;2107206;28;20119;-79
2022/03/11 05:36:11;;;;;;;3.25;1.42;;;;;;;6.33;68.45;101560.75;2107052;28;20060;-81
2022/03/11 05:37:34;;;;;;;3.33;0.90;;;;;;;6.23;68.43;101570.78;2110105;28;20040;-78
2022/03/11 05:38:57;;;;;;;1.95;1.42;;;;;;;5.91;68.65;101574.47;2104631;28;20047;-79
2022/03/11 05:40:19;;;;;;;6.63;2.22;;;;;;;5.69;70.06;101580.41;2101873;28;20055;-79
2022/03/11 05:41:46;;;;;;;5.45;2.53;;;;;;;5.65;71.00;101572.31;2110943;28;20066;-79
2022/03/11 05:43:08;;;;;;;3.45;1.52;;;;;;;5.69;71.57;101576.91;2107320;28;20070;-79
2022/03/11 05:44:31;;;;;;;3.67;1.67;;;;;;;5.73;72.10;101570.97;2102120;28;20086;-80
2022/03/11 05:45:54;;;;;;;9.13;2.50;;;;;;;5.73;73.01;101579.72;2106983;28;20483;-80
2022/03/11 05:47:17;;;;;;;4.00;1.80;;;;;;;5.79;73.64;101592.22;2110336;28;20062;-80
2022/03/11 05:48:39;;;;;;;6.25;2.22;;;;;;;5.80;74.00;101607.13;2106806;28;20043;-78
2022/03/11 05:50:01;;;;;;;1.65;0.88;;;;;;;5.65;74.62;101607.25;2110028;28;20104;-77
2022/03/11 05:51:24;;;;;;;3.05;2.10;;;;;;;5.17;74.59;101605.75;2106944;28;20043;-76
2022/03/11 05:52:49;;;;;;;3.65;1.38;;;;;;;4.95;75.90;101613.31;2093388;28;20099;-77
2022/03/11 05:54:11;;;;;;;4.20;1.80;;;;;;;4.97;76.84;101617.81;2100366;28;20072;-77
2022/03/11 05:55:34;;;;;;;6.57;2.28;;;;;;;5.05;77.35;101615.59;2110138;28;20506;-77
2022/03/11 05:56:59;;;;;;;6.82;3.15;;;;;;;5.14;77.68;101618.66;2112704;28;20051;-77
2022/03/11 05:58:21;;;;;;;4.40;1.83;;;;;;;5.21;77.88;101618.16;2112700;28;20104;-76
2022/03/11 05:59:43;;;;;;;4.32;1.55;;;;;;;5.26;77.87;101621.88;2095632;28;20040;-76
2022/03/11 06:01:06;;;;;;;6.55;1.77;;;;;;;5.33;78.27;101617.88;2107548;28;20040;-77
2022/03/11 06:02:27;;;;;;;4.57;1.60;;;;;;;5.45;78.07;101618.47;2104269;28;20044;-76
2022/03/11 06:03:49;;;;;;;6.22;1.73;;;;;;;5.63;78.06;101615.88;2112409;28;20429;-77
2022/03/11 06:05:12;;;;;;;5.43;1.58;;;;;;;5.76;77.97;101608.69;2104201;28;20083;-76
2022/03/11 06:06:34;;;;;;;3.60;1.90;;;;;;;5.89;77.46;101612.84;2101768;28;20072;-77
2022/03/11 06:07:56;;;;;;;2.83;1.25;;;;;;;5.99;77.20;101605.47;2104564;28;20078;-77
2022/03/11 06:09:18;;;;;;;5.90;2.13;;;;;;;6.08;76.98;101601.50;2104116;28;20044;-77
2022/03/11 06:10:42;;;;;;;5.18;2.22;;;;;;;6.12;76.88;101595.56;2101430;28;20072;-77
2022/03/11 06:12:08;;;;;;;6.65;2.40;;;;;;;6.18;76.80;101602.00;2104666;28;20131;-77
2022/03/11 06:13:31;;;;;;;4.22;2.67;;;;;;;6.21;76.53;101603.88;2102278;28;20093;-76
2022/03/11 06:14:52;;;;;;;7.97;2.65;;;;;;;6.26;76.48;101598.00;2110059;28;20139;-77
2022/03/11 06:16:15;;;;;;;6.85;2.58;;;;;;;6.36;76.27;101600.25;2106730;28;20071;-76
2022/03/11 06:17:36;;;;;;;2.60;1.77;;;;;;;6.46;75.90;101608.50;2112362;28;20039;-77
2022/03/11 06:18:59;;;;;;;4.28;2.60;;;;;;;6.53;75.57;101594.84;2104130;28;20498;-77
2022/03/11 06:20:21;;;;;;;3.13;1.17;;;;;;;6.58;75.29;101593.31;2118396;27;20406;-77
2022/03/11 06:21:44;;;;;;;5.28;1.83;;;;;;;6.61;74.82;101598.72;2106529;28;20088;-78
2022/03/11 06:23:06;;;;;;;4.40;1.23;;;;;;;6.64;74.72;101606.72;2103849;28;20040;-77
2022/03/11 06:24:29;;;;;;;2.97;1.52;;;;;;;6.64;74.29;101604.09;2106737;28;20093;-77
2022/03/11 06:25:51;;;;;;;8.02;2.20;;;;;;;6.60;74.02;101602.16;2101475;28;20065;-78
2022/03/11 06:27:16;;;;;;;4.28;1.50;;;;;;;6.59;73.51;101608.25;2101393;28;20051;-77
2022/03/11 06:28:37;;;;;;;8.35;2.00;;;;;;;6.56;73.35;101614.25;2101566;28;20048;-78
2022/03/11 06:29:59;;;;;;;5.13;1.98;;;;;;;6.57;73.50;101617.75;2103778;28;20044;-77